FCA2751 LIMF-EGCC
Flight info
| Callsign | FCA2751 |
|---|---|
| Flight time | N/A |
| Altitude | 38000 |
| Route | KUKEV DCT MOLUS DCT IBODI DCT GOTED DCT TRO DCT CLM DCT KOPOR DCT VESAN DCT RATUK DCT SOVAT L613 SANDY UN57 WELIN T420 ELVOS |
| Aircraft | B752/M-SDE2E3FGHIJ3J4J7RWXY/LB1 |
Departure
| Time | 2026-04-28 21:27 |
|---|---|
| Airport | Turin Airport (LIMF) |
Arrival
| Time | N/A |
|---|---|
| Airport | Manchester Airport (EGCC) |
| Time | Latitude | Longitude | Altitude | Speed | Heading |
|---|---|---|---|---|---|
| 2026-04-28 21:03 | 45.19115 | 7.64519 | 955 ft | 0 kts | 255° |
| 2026-04-28 21:14 | 45.19118 | 7.64534 | 955 ft | 2 kts | 255° |
| 2026-04-28 21:15 | 45.19122 | 7.64555 | 955 ft | 2 kts | 255° |
| 2026-04-28 21:15 | 45.19126 | 7.64575 | 954 ft | 2 kts | 255° |
| 2026-04-28 21:15 | 45.19130 | 7.64596 | 954 ft | 2 kts | 255° |
| 2026-04-28 21:15 | 45.19131 | 7.64602 | 954 ft | 2 kts | 255° |
| 2026-04-28 21:16 | 45.19135 | 7.64621 | 954 ft | 0 kts | 255° |
| 2026-04-28 21:16 | 45.19138 | 7.64636 | 954 ft | 2 kts | 237° |
| 2026-04-28 21:16 | 45.19149 | 7.64650 | 954 ft | 2 kts | 210° |
| 2026-04-28 21:16 | 45.19161 | 7.64657 | 954 ft | 0 kts | 187° |
| 2026-04-28 21:17 | 45.19167 | 7.64657 | 955 ft | 1 kts | 184° |
| 2026-04-28 21:19 | 45.19158 | 7.64656 | 954 ft | 3 kts | 184° |
| 2026-04-28 21:19 | 45.19117 | 7.64653 | 954 ft | 9 kts | 184° |
| 2026-04-28 21:19 | 45.19028 | 7.64645 | 952 ft | 15 kts | 184° |
| 2026-04-28 21:19 | 45.18916 | 7.64642 | 950 ft | 15 kts | 181° |
| 2026-04-28 21:20 | 45.18806 | 7.64638 | 947 ft | 13 kts | 181° |
| 2026-04-28 21:20 | 45.18740 | 7.64636 | 946 ft | 7 kts | 182° |
| 2026-04-28 21:20 | 45.18688 | 7.64634 | 945 ft | 6 kts | 182° |
| 2026-04-28 21:20 | 45.18659 | 7.64646 | 944 ft | 0 kts | 148° |
| 2026-04-28 21:21 | 45.18658 | 7.64647 | 944 ft | 0 kts | 148° |
| 2026-04-28 21:24 | 45.18657 | 7.64647 | 944 ft | 1 kts | 148° |
| 2026-04-28 21:25 | 45.18638 | 7.64671 | 944 ft | 5 kts | 128° |
| 2026-04-28 21:25 | 45.18619 | 7.64729 | 943 ft | 7 kts | 102° |
| 2026-04-28 21:25 | 45.18617 | 7.64791 | 943 ft | 5 kts | 86° |
| 2026-04-28 21:25 | 45.18629 | 7.64848 | 943 ft | 6 kts | 56° |
| 2026-04-28 21:26 | 45.18659 | 7.64875 | 943 ft | 4 kts | 5° |
| 2026-04-28 21:26 | 45.18673 | 7.64876 | 943 ft | 0 kts | 2° |
| 2026-04-28 21:26 | 45.18726 | 7.64879 | 944 ft | 25 kts | 2° |
| 2026-04-28 21:26 | 45.19171 | 7.64905 | 953 ft | 102 kts | 2° |
| 2026-04-28 21:27 | 45.20126 | 7.64967 | 1018 ft | 165 kts | 3° |
| 2026-04-28 21:27 | 45.21321 | 7.65071 | 1667 ft | 180 kts | 3° |
| 2026-04-28 21:27 | 45.22560 | 7.65145 | 2623 ft | 187 kts | 1° |
| 2026-04-28 21:27 | 45.23876 | 7.65207 | 3568 ft | 195 kts | 2° |
| 2026-04-28 21:28 | 45.25243 | 7.65307 | 4294 ft | 207 kts | 7° |
| 2026-04-28 21:28 | 45.26637 | 7.66123 | 4751 ft | 232 kts | 41° |
| 2026-04-28 21:28 | 45.27540 | 7.68072 | 5387 ft | 250 kts | 74° |
| 2026-04-28 21:28 | 45.27564 | 7.70500 | 6285 ft | 255 kts | 106° |
| 2026-04-28 21:29 | 45.26873 | 7.72844 | 7192 ft | 260 kts | 112° |
| 2026-04-28 21:29 | 45.26225 | 7.75214 | 8088 ft | 263 kts | 109° |
| 2026-04-28 21:29 | 45.25644 | 7.77637 | 8982 ft | 265 kts | 108° |
| 2026-04-28 21:29 | 45.24999 | 7.80094 | 9846 ft | 269 kts | 119° |
| 2026-04-28 21:30 | 45.23951 | 7.82295 | 10669 ft | 274 kts | 126° |
| 2026-04-28 21:30 | 45.22841 | 7.84479 | 11441 ft | 279 kts | 124° |
| 2026-04-28 21:30 | 45.21730 | 7.86719 | 12360 ft | 278 kts | 124° |
| 2026-04-28 21:30 | 45.20607 | 7.88981 | 13061 ft | 285 kts | 125° |
| 2026-04-28 21:31 | 45.19453 | 7.91278 | 13861 ft | 287 kts | 125° |
| 2026-04-28 21:31 | 45.18302 | 7.93575 | 14587 ft | 289 kts | 124° |
| 2026-04-28 21:31 | 45.17253 | 7.96054 | 14951 ft | 303 kts | 109° |
| 2026-04-28 21:31 | 45.16865 | 7.99065 | 15178 ft | 318 kts | 88° |
| 2026-04-28 21:32 | 45.17244 | 8.02086 | 15889 ft | 315 kts | 68° |
| 2026-04-28 21:32 | 45.18287 | 8.04784 | 16452 ft | 318 kts | 50° |
| 2026-04-28 21:32 | 45.19933 | 8.06903 | 17047 ft | 319 kts | 31° |
| 2026-04-28 21:32 | 45.21954 | 8.08142 | 17615 ft | 321 kts | 12° |
| 2026-04-28 21:33 | 45.24163 | 8.08403 | 18167 ft | 323 kts | 354° |
| 2026-04-28 21:33 | 45.26348 | 8.07638 | 18711 ft | 325 kts | 335° |
| 2026-04-28 21:33 | 45.28239 | 8.05942 | 19234 ft | 328 kts | 317° |
| 2026-04-28 21:33 | 45.29741 | 8.03511 | 19758 ft | 331 kts | 308° |
| 2026-04-28 21:34 | 45.31175 | 8.00929 | 20230 ft | 337 kts | 307° |
| 2026-04-28 21:34 | 45.32348 | 7.97950 | 20271 ft | 356 kts | 290° |
| 2026-04-28 21:34 | 45.32993 | 7.94467 | 20317 ft | 374 kts | 283° |
| 2026-04-28 21:34 | 45.33570 | 7.90767 | 20338 ft | 392 kts | 283° |
| 2026-04-28 21:35 | 45.34184 | 7.86934 | 20355 ft | 408 kts | 283° |
| 2026-04-28 21:35 | 45.34824 | 7.82937 | 20443 ft | 422 kts | 283° |
| 2026-04-28 21:35 | 45.35472 | 7.78884 | 20939 ft | 424 kts | 283° |
| 2026-04-28 21:35 | 45.36128 | 7.74772 | 21389 ft | 427 kts | 283° |
| 2026-04-28 21:36 | 45.36787 | 7.70644 | 21849 ft | 430 kts | 283° |
| 2026-04-28 21:36 | 45.37445 | 7.66506 | 22287 ft | 433 kts | 284° |
| 2026-04-28 21:36 | 45.38331 | 7.62399 | 22692 ft | 435 kts | 293° |
| 2026-04-28 21:36 | 45.39690 | 7.58615 | 23104 ft | 437 kts | 303° |
| 2026-04-28 21:37 | 45.41531 | 7.55143 | 23504 ft | 439 kts | 313° |
| 2026-04-28 21:37 | 45.43644 | 7.52016 | 23888 ft | 442 kts | 315° |
| 2026-04-28 21:37 | 45.45804 | 7.48863 | 24293 ft | 444 kts | 315° |
| 2026-04-28 21:37 | 45.47960 | 7.45744 | 24676 ft | 447 kts | 315° |
| 2026-04-28 21:38 | 45.50159 | 7.42577 | 25059 ft | 450 kts | 315° |
| 2026-04-28 21:38 | 45.52380 | 7.39385 | 25433 ft | 452 kts | 315° |
| 2026-04-28 21:38 | 45.54567 | 7.36240 | 25791 ft | 455 kts | 315° |
| 2026-04-28 21:38 | 45.56824 | 7.32999 | 26150 ft | 457 kts | 315° |
| 2026-04-28 21:39 | 45.59076 | 7.29761 | 26499 ft | 460 kts | 315° |
| 2026-04-28 21:39 | 45.61314 | 7.26542 | 26839 ft | 462 kts | 315° |
| 2026-04-28 21:39 | 45.63624 | 7.23322 | 27161 ft | 464 kts | 319° |
| 2026-04-28 21:39 | 45.66223 | 7.20577 | 27474 ft | 466 kts | 328° |
| 2026-04-28 21:40 | 45.69094 | 7.18427 | 27787 ft | 468 kts | 335° |
| 2026-04-28 21:40 | 45.72035 | 7.16451 | 28094 ft | 471 kts | 335° |
| 2026-04-28 21:40 | 45.74959 | 7.14492 | 28411 ft | 473 kts | 335° |
| 2026-04-28 21:40 | 45.77972 | 7.12482 | 28721 ft | 475 kts | 335° |
| 2026-04-28 21:41 | 45.80980 | 7.10482 | 29028 ft | 477 kts | 335° |
| 2026-04-28 21:41 | 45.83975 | 7.08491 | 29324 ft | 479 kts | 335° |
| 2026-04-28 21:41 | 45.87031 | 7.06460 | 29637 ft | 481 kts | 335° |
| 2026-04-28 21:41 | 45.90053 | 7.04451 | 30052 ft | 480 kts | 335° |
| 2026-04-28 21:42 | 45.93079 | 7.02438 | 30471 ft | 479 kts | 335° |
| 2026-04-28 21:42 | 45.96076 | 7.00443 | 30876 ft | 478 kts | 335° |
| 2026-04-28 21:42 | 45.99123 | 6.98412 | 31280 ft | 477 kts | 335° |
| 2026-04-28 21:42 | 46.02107 | 6.96422 | 31659 ft | 476 kts | 335° |
| 2026-04-28 21:43 | 46.05091 | 6.94429 | 32029 ft | 475 kts | 335° |
| 2026-04-28 21:43 | 46.08109 | 6.92410 | 32392 ft | 475 kts | 335° |
| 2026-04-28 21:43 | 46.11111 | 6.90401 | 32743 ft | 474 kts | 335° |
| 2026-04-28 21:43 | 46.14087 | 6.88406 | 33083 ft | 473 kts | 335° |
| 2026-04-28 21:44 | 46.17083 | 6.86395 | 33422 ft | 472 kts | 335° |
| 2026-04-28 21:44 | 46.20056 | 6.84398 | 33751 ft | 471 kts | 335° |
| 2026-04-28 21:44 | 46.23020 | 6.82404 | 34072 ft | 471 kts | 335° |
| 2026-04-28 21:44 | 46.25990 | 6.80404 | 34386 ft | 470 kts | 335° |
| 2026-04-28 21:45 | 46.28937 | 6.78417 | 34692 ft | 469 kts | 335° |
| 2026-04-28 21:45 | 46.31886 | 6.76426 | 34992 ft | 468 kts | 335° |
| 2026-04-28 21:45 | 46.34811 | 6.74449 | 35283 ft | 468 kts | 335° |
| 2026-04-28 21:45 | 46.37774 | 6.72445 | 35571 ft | 467 kts | 335° |
| 2026-04-28 21:46 | 46.40706 | 6.70454 | 35849 ft | 466 kts | 334° |
| 2026-04-28 21:46 | 46.43475 | 6.68159 | 36090 ft | 466 kts | 325° |
| 2026-04-28 21:46 | 46.46003 | 6.65192 | 36323 ft | 466 kts | 316° |
| 2026-04-28 21:46 | 46.48301 | 6.61850 | 36554 ft | 466 kts | 315° |
| 2026-04-28 21:47 | 46.50567 | 6.58507 | 36781 ft | 466 kts | 315° |
| 2026-04-28 21:47 | 46.52828 | 6.55137 | 37002 ft | 466 kts | 315° |
| 2026-04-28 21:47 | 46.55066 | 6.51778 | 37213 ft | 466 kts | 314° |
| 2026-04-28 21:47 | 46.57302 | 6.48406 | 37417 ft | 466 kts | 314° |
| 2026-04-28 21:48 | 46.59535 | 6.45027 | 37614 ft | 466 kts | 314° |
| 2026-04-28 21:48 | 46.61775 | 6.41630 | 37804 ft | 466 kts | 314° |
| 2026-04-28 21:48 | 46.64023 | 6.38210 | 37990 ft | 466 kts | 314° |
| 2026-04-28 21:48 | 46.66219 | 6.34863 | 38069 ft | 460 kts | 314° |
| 2026-04-28 21:49 | 46.70681 | 6.28049 | 38074 ft | 464 kts | 314° |
| 2026-04-28 21:49 | 46.75113 | 6.21261 | 38073 ft | 465 kts | 314° |
| 2026-04-28 21:50 | 46.79537 | 6.14467 | 38073 ft | 464 kts | 314° |
| 2026-04-28 21:50 | 46.83957 | 6.07662 | 38072 ft | 464 kts | 314° |
| 2026-04-28 21:51 | 46.88376 | 6.00843 | 38071 ft | 464 kts | 314° |
| 2026-04-28 21:51 | 46.92813 | 5.93977 | 38070 ft | 464 kts | 314° |
| 2026-04-28 21:52 | 46.97850 | 5.88252 | 38084 ft | 463 kts | 331° |
| 2026-04-28 21:52 | 47.03560 | 5.83787 | 38069 ft | 464 kts | 332° |
| 2026-04-28 21:53 | 47.09221 | 5.79392 | 38068 ft | 463 kts | 332° |
| 2026-04-28 21:53 | 47.14919 | 5.74982 | 38069 ft | 464 kts | 332° |
| 2026-04-28 21:54 | 47.20653 | 5.70541 | 38069 ft | 463 kts | 332° |
| 2026-04-28 21:54 | 47.26369 | 5.66109 | 38069 ft | 463 kts | 332° |
| 2026-04-28 21:55 | 47.32056 | 5.61688 | 38068 ft | 463 kts | 332° |
| 2026-04-28 21:55 | 47.37742 | 5.57258 | 38068 ft | 463 kts | 332° |
| 2026-04-28 21:56 | 47.43433 | 5.52814 | 38068 ft | 463 kts | 332° |
| 2026-04-28 21:56 | 47.49082 | 5.48339 | 38067 ft | 463 kts | 329° |
| 2026-04-28 21:57 | 47.53965 | 5.42236 | 38080 ft | 464 kts | 310° |
| 2026-04-28 21:57 | 47.57927 | 5.34633 | 38068 ft | 465 kts | 307° |
| 2026-04-28 21:58 | 47.61773 | 5.27018 | 38069 ft | 464 kts | 307° |
| 2026-04-28 21:58 | 47.65599 | 5.19345 | 38069 ft | 464 kts | 306° |
| 2026-04-28 21:59 | 47.69424 | 5.11621 | 38069 ft | 464 kts | 306° |
| 2026-04-28 22:00 | 47.75116 | 5.00069 | 38069 ft | 464 kts | 306° |
| 2026-04-28 22:00 | 47.78932 | 4.92292 | 38069 ft | 464 kts | 306° |
| 2026-04-28 22:01 | 47.82724 | 4.84540 | 38069 ft | 464 kts | 306° |
| 2026-04-28 22:01 | 47.86508 | 4.76785 | 38069 ft | 464 kts | 306° |
| 2026-04-28 22:02 | 47.90272 | 4.69045 | 38068 ft | 464 kts | 306° |
| 2026-04-28 22:02 | 47.94060 | 4.61237 | 38068 ft | 464 kts | 306° |
| 2026-04-28 22:03 | 47.97803 | 4.53501 | 38068 ft | 464 kts | 306° |
| 2026-04-28 22:03 | 48.01584 | 4.45660 | 38068 ft | 464 kts | 306° |
| 2026-04-28 22:04 | 48.05336 | 4.37859 | 38068 ft | 464 kts | 306° |
| 2026-04-28 22:04 | 48.09092 | 4.30026 | 38068 ft | 464 kts | 306° |
| 2026-04-28 22:05 | 48.12864 | 4.22138 | 38068 ft | 464 kts | 306° |
| 2026-04-28 22:05 | 48.16617 | 4.14265 | 38068 ft | 464 kts | 306° |
| 2026-04-28 22:06 | 48.20361 | 4.06389 | 38068 ft | 464 kts | 306° |
| 2026-04-28 22:06 | 48.24116 | 3.98476 | 38066 ft | 464 kts | 306° |
| 2026-04-28 22:07 | 48.28394 | 3.91242 | 38068 ft | 464 kts | 314° |
| 2026-04-28 22:07 | 48.32815 | 3.84244 | 38067 ft | 464 kts | 314° |
| 2026-04-28 22:08 | 48.37246 | 3.77231 | 38067 ft | 464 kts | 314° |
| 2026-04-28 22:08 | 48.41656 | 3.70239 | 38067 ft | 464 kts | 314° |
| 2026-04-28 22:09 | 48.46083 | 3.63203 | 38067 ft | 464 kts | 314° |
| 2026-04-28 22:09 | 48.50501 | 3.56164 | 38067 ft | 464 kts | 314° |
| 2026-04-28 22:10 | 48.54911 | 3.49119 | 38067 ft | 464 kts | 314° |
| 2026-04-28 22:10 | 48.59355 | 3.42002 | 38067 ft | 464 kts | 314° |
| 2026-04-28 22:11 | 48.63762 | 3.34923 | 38067 ft | 464 kts | 313° |
| 2026-04-28 22:11 | 48.68182 | 3.27805 | 38067 ft | 464 kts | 313° |
| 2026-04-28 22:12 | 48.72574 | 3.20712 | 38067 ft | 464 kts | 313° |
| 2026-04-28 22:12 | 48.76960 | 3.13607 | 38067 ft | 464 kts | 313° |
| 2026-04-28 22:13 | 48.81361 | 3.06460 | 38067 ft | 464 kts | 313° |
| 2026-04-28 22:13 | 48.86212 | 3.00034 | 38080 ft | 463 kts | 328° |
| 2026-04-28 22:14 | 48.91732 | 2.95121 | 38066 ft | 464 kts | 330° |
| 2026-04-28 22:14 | 48.97328 | 2.90186 | 38066 ft | 463 kts | 330° |
| 2026-04-28 22:15 | 49.02858 | 2.85320 | 38066 ft | 464 kts | 330° |
| 2026-04-28 22:15 | 49.08440 | 2.80405 | 38066 ft | 464 kts | 330° |
| 2026-04-28 22:16 | 49.14007 | 2.75492 | 38067 ft | 464 kts | 330° |
| 2026-04-28 22:16 | 49.19614 | 2.70533 | 38067 ft | 464 kts | 330° |
| 2026-04-28 22:17 | 49.25183 | 2.65595 | 38067 ft | 463 kts | 330° |
| 2026-04-28 22:17 | 49.30751 | 2.60644 | 38067 ft | 464 kts | 330° |
| 2026-04-28 22:18 | 49.36295 | 2.55704 | 38067 ft | 463 kts | 330° |
| 2026-04-28 22:18 | 49.41842 | 2.50746 | 38067 ft | 463 kts | 330° |
| 2026-04-28 22:19 | 49.47426 | 2.45742 | 38067 ft | 463 kts | 330° |
| 2026-04-28 22:19 | 49.53172 | 2.41474 | 38080 ft | 463 kts | 343° |
| 2026-04-28 22:20 | 49.59365 | 2.38602 | 38067 ft | 464 kts | 343° |
| 2026-04-28 22:20 | 49.65547 | 2.35763 | 38067 ft | 463 kts | 344° |
| 2026-04-28 22:21 | 49.71709 | 2.32945 | 38067 ft | 463 kts | 343° |
| 2026-04-28 22:21 | 49.77890 | 2.30118 | 38067 ft | 463 kts | 343° |
| 2026-04-28 22:22 | 49.84050 | 2.27296 | 38067 ft | 463 kts | 343° |
| 2026-04-28 22:22 | 49.90261 | 2.24444 | 38067 ft | 463 kts | 343° |
| 2026-04-28 22:23 | 49.96411 | 2.21613 | 38067 ft | 463 kts | 343° |
| 2026-04-28 22:23 | 50.02554 | 2.18779 | 38066 ft | 463 kts | 343° |
| 2026-04-28 22:24 | 50.08721 | 2.15925 | 38066 ft | 463 kts | 343° |
| 2026-04-28 22:24 | 50.14899 | 2.13058 | 38067 ft | 463 kts | 343° |
| 2026-04-28 22:25 | 50.21100 | 2.10174 | 38067 ft | 463 kts | 343° |
| 2026-04-28 22:25 | 50.27259 | 2.07300 | 38067 ft | 463 kts | 343° |
| 2026-04-28 22:26 | 50.33420 | 2.04390 | 38067 ft | 463 kts | 340° |
| 2026-04-28 22:26 | 50.39078 | 1.99676 | 38079 ft | 464 kts | 322° |
| 2026-04-28 22:27 | 50.44038 | 1.93190 | 38067 ft | 464 kts | 320° |
| 2026-04-28 22:27 | 50.48909 | 1.86644 | 38067 ft | 463 kts | 319° |